Time;durP1;ratioP1;P1;durP2;ratioP2;P2;SDS_P1;SDS_P2;PMS_P1;PMS_P2;Temp;Humidity;BMP_temperature;BMP_pressure;BME280_temperature;BME280_humidity;BME280_pressure;Samples;Min_cycle;Max_cycle;Signal;HPM_P1;HPM_P2
2022/08/17 00:01:39;;;;;;;;;;;24.00;71.20;;;;;;5114695;28;19908;-74
2022/08/17 00:04:06;;;;;;;;;;;24.00;71.60;;;;;;5114763;28;19969;-74
2022/08/17 00:06:34;;;;;;;;;;;24.00;71.50;;;;;;5115292;28;19920;-74
2022/08/17 00:09:01;;;;;;;;;;;23.90;71.50;;;;;;5115720;28;20350;-74
2022/08/17 00:11:28;;;;;;;;;;;23.90;71.50;;;;;;5115295;28;20000;-74
2022/08/17 00:13:56;;;;;;;;;;;23.90;71.50;;;;;;5114960;28;19962;-74
2022/08/17 00:16:30;;;;;;;;;;;23.90;71.30;;;;;;5114514;28;19912;-74
2022/08/17 00:18:56;;;;;;;;;;;24.00;71.30;;;;;;5114853;28;19956;-74
2022/08/17 00:21:22;;;;;;;;;;;24.00;71.30;;;;;;5115499;28;19960;-74
2022/08/17 00:23:48;;;;;;;;;;;24.00;71.30;;;;;;5115148;28;20370;-73
2022/08/17 00:26:14;;;;;;;;;;;24.00;71.30;;;;;;5113954;28;20328;-71
2022/08/17 00:28:40;;;;;;;;;;;24.00;71.20;;;;;;5113191;28;19908;-74
2022/08/17 00:31:09;;;;;;;;;;;24.00;71.30;;;;;;5113776;28;19914;-74
2022/08/17 00:33:36;;;;;;;;;;;24.00;71.40;;;;;;5114142;28;20663;-73
2022/08/17 00:36:04;;;;;;;;;;;23.90;71.40;;;;;;5115121;28;20354;-74
2022/08/17 00:38:30;;;;;;;;;;;23.90;71.20;;;;;;5114970;28;19919;-74
2022/08/17 00:40:59;;;;;;;;;;;23.90;71.20;;;;;;5114841;28;19908;-74
2022/08/17 00:43:46;;;;;;;;;;;23.90;71.30;;;;;;5114505;28;19994;-74
2022/08/17 00:46:12;;;;;;;;;;;23.90;71.50;;;;;;5115238;28;19915;-74
2022/08/17 00:48:38;;;;;;;;;;;23.90;71.40;;;;;;5115123;28;20354;-74
2022/08/17 00:51:06;;;;;;;;;;;23.90;71.30;;;;;;5114514;28;20388;-74
2022/08/17 00:53:34;;;;;;;;;;;23.90;71.20;;;;;;5114139;28;20272;-74
2022/08/17 01:05:12;;;;;;;;;;;23.90;71.30;;;;;;5109664;28;19914;-74
2022/08/17 01:07:38;;;;;;;;;;;23.90;71.30;;;;;;5094760;28;20308;-73
2022/08/17 01:10:05;;;;;;;;;;;23.90;71.30;;;;;;5093968;28;19916;-74
2022/08/17 01:12:32;;;;;;;;;;;23.90;71.30;;;;;;5093680;28;19934;-74
2022/08/17 01:14:58;;;;;;;;;;;23.90;71.20;;;;;;5093963;28;19916;-74
2022/08/17 01:17:23;;;;;;;;;;;23.90;71.20;;;;;;5093810;28;19908;-74
2022/08/17 01:19:49;;;;;;;;;;;24.00;71.40;;;;;;5092703;28;19908;-74
2022/08/17 01:22:16;;;;;;;;;;;23.90;71.10;;;;;;5093005;28;19957;-74
2022/08/17 01:24:43;;;;;;;;;;;23.90;71.20;;;;;;5092220;28;19908;-74
2022/08/17 01:27:10;;;;;;;;;;;23.90;71.10;;;;;;5092857;28;20282;-74
2022/08/17 01:29:36;;;;;;;;;;;23.90;71.00;;;;;;5092833;28;19908;-73
2022/08/17 01:32:03;;;;;;;;;;;23.90;71.00;;;;;;5093009;28;19908;-75
2022/08/17 01:34:29;;;;;;;;;;;23.90;71.00;;;;;;5093529;28;19916;-73
2022/08/17 01:36:55;;;;;;;;;;;23.90;71.10;;;;;;5093633;28;19912;-73
2022/08/17 01:39:24;;;;;;;;;;;23.80;71.10;;;;;;5092426;28;19908;-73
2022/08/17 01:41:51;;;;;;;;;;;23.80;71.10;;;;;;5096983;28;20266;-73
2022/08/17 01:44:17;;;;;;;;;;;23.80;71.70;;;;;;5097464;28;19908;-73
2022/08/17 01:46:42;;;;;;;;;;;23.70;71.70;;;;;;5097224;28;19908;-73
2022/08/17 01:49:09;;;;;;;;;;;23.60;71.70;;;;;;5097541;28;19908;-73
2022/08/17 01:51:34;;;;;;;;;;;23.60;72.20;;;;;;5097604;28;19912;-73
2022/08/17 01:54:03;;;;;;;;;;;23.50;72.80;;;;;;5096226;28;19962;-74
2022/08/17 01:56:31;;;;;;;;;;;23.50;72.30;;;;;;5096409;28;19912;-74
2022/08/17 01:58:57;;;;;;;;;;;23.50;72.10;;;;;;5096214;28;20370;-74
2022/08/17 02:01:25;;;;;;;;;;;23.50;72.40;;;;;;5096391;28;19908;-75
2022/08/17 02:03:51;;;;;;;;;;;23.60;72.30;;;;;;5096479;28;19908;-74
2022/08/17 02:06:17;;;;;;;;;;;23.60;72.50;;;;;;5095837;28;19946;-74
2022/08/17 02:08:43;;;;;;;;;;;23.60;72.70;;;;;;5097025;28;19915;-74
2022/08/17 02:11:10;;;;;;;;;;;23.50;72.40;;;;;;5097041;28;19908;-73
2022/08/17 02:13:36;;;;;;;;;;;23.50;73.10;;;;;;5097322;28;19957;-74
2022/08/17 02:16:02;;;;;;;;;;;23.40;72.90;;;;;;5113345;28;19966;-74
2022/08/17 02:18:29;;;;;;;;;;;23.30;73.10;;;;;;5117225;28;19977;-72
2022/08/17 02:20:54;;;;;;;;;;;23.30;72.90;;;;;;5116755;28;20273;-73
2022/08/17 02:23:21;;;;;;;;;;;23.30;73.80;;;;;;5116352;28;19915;-72
2022/08/17 02:25:47;;;;;;;;;;;23.20;73.60;;;;;;5116113;28;19939;-74
2022/08/17 02:28:13;;;;;;;;;;;23.30;73.40;;;;;;5116612;28;19914;-74
2022/08/17 02:30:38;;;;;;;;;;;23.20;73.40;;;;;;5117452;28;20002;-74
2022/08/17 02:33:05;;;;;;;;;;;23.30;73.40;;;;;;5116136;28;19912;-74
2022/08/17 02:35:30;;;;;;;;;;;23.30;73.80;;;;;;5117061;28;20011;-75
2022/08/17 02:37:56;;;;;;;;;;;23.30;73.80;;;;;;5117191;28;19989;-75
2022/08/17 02:40:23;;;;;;;;;;;23.30;73.40;;;;;;5117069;28;20368;-75
2022/08/17 02:42:48;;;;;;;;;;;23.40;73.30;;;;;;5117580;28;19912;-75
2022/08/17 02:45:15;;;;;;;;;;;23.40;73.10;;;;;;5116487;28;20377;-78
2022/08/17 02:47:42;;;;;;;;;;;23.40;73.30;;;;;;5116410;28;20264;-76
2022/08/17 02:50:09;;;;;;;;;;;23.50;73.10;;;;;;5116754;28;19912;-77
2022/08/17 02:52:36;;;;;;;;;;;23.50;73.00;;;;;;5113919;28;20018;-76
2022/08/17 02:55:07;;;;;;;;;;;23.50;72.90;;;;;;5116990;28;19912;-74
2022/08/17 02:57:32;;;;;;;;;;;23.50;72.60;;;;;;5117618;28;19907;-77
2022/08/17 02:59:58;;;;;;;;;;;23.50;72.50;;;;;;5116187;28;19916;-76
2022/08/17 03:02:23;;;;;;;;;;;23.60;72.70;;;;;;5114121;28;20239;-76
2022/08/17 03:04:49;;;;;;;;;;;23.60;72.70;;;;;;5116072;28;19960;-76
2022/08/17 03:07:14;;;;;;;;;;;23.70;72.70;;;;;;5115086;28;19959;-77
2022/08/17 03:09:40;;;;;;;;;;;23.80;72.60;;;;;;5116270;28;20310;-76
2022/08/17 03:12:11;;;;;;;;;;;23.90;72.50;;;;;;5116251;28;20366;-77
2022/08/17 03:14:37;;;;;;;;;;;23.90;72.30;;;;;;5116588;28;19919;-76
2022/08/17 03:17:02;;;;;;;;;;;24.00;72.10;;;;;;5116359;28;19907;-77
2022/08/17 03:19:28;;;;;;;;;;;24.10;72.00;;;;;;5116251;28;19953;-75
2022/08/17 03:21:54;;;;;;;;;;;24.20;71.90;;;;;;5116416;28;19908;-76
2022/08/17 03:24:19;;;;;;;;;;;24.20;71.70;;;;;;5115925;28;19914;-77
2022/08/17 03:26:45;;;;;;;;;;;24.30;71.60;;;;;;5116289;28;19991;-77
2022/08/17 03:29:17;;;;;;;;;;;24.30;71.40;;;;;;5116901;28;19974;-76
2022/08/17 03:31:44;;;;;;;;;;;24.40;71.30;;;;;;5116501;28;19915;-77
2022/08/17 03:34:09;;;;;;;;;;;24.40;71.20;;;;;;5116051;28;20370;-77
2022/08/17 03:36:35;;;;;;;;;;;24.50;71.10;;;;;;5116217;28;19919;-76
2022/08/17 03:39:00;;;;;;;;;;;24.50;71.00;;;;;;5115745;28;19945;-76
2022/08/17 03:41:26;;;;;;;;;;;24.50;70.90;;;;;;5116059;28;19908;-79
2022/08/17 03:43:51;;;;;;;;;;;24.60;70.90;;;;;;5115627;28;20378;-77
2022/08/17 03:57:16;;;;;;;;;;;24.80;70.50;;;;;;5115536;28;19918;-77
2022/08/17 03:59:41;;;;;;;;;;;24.80;70.40;;;;;;5115245;28;19907;-77
2022/08/17 04:02:09;;;;;;;;;;;24.90;70.40;;;;;;5115917;28;19912;-77
2022/08/17 04:04:36;;;;;;;;;;;24.90;70.30;;;;;;5115311;28;19908;-76
2022/08/17 04:07:02;;;;;;;;;;;24.90;70.20;;;;;;5115337;28;19920;-76
2022/08/17 04:09:27;;;;;;;;;;;25.00;70.20;;;;;;5113922;28;20491;-76
2022/08/17 04:11:53;;;;;;;;;;;25.00;70.10;;;;;;5115385;28;19908;-77
2022/08/17 04:14:19;;;;;;;;;;;25.00;70.00;;;;;;5113709;28;19962;-77
2022/08/17 04:16:44;;;;;;;;;;;25.00;69.90;;;;;;5115403;28;19919;-77
2022/08/17 04:19:10;;;;;;;;;;;25.00;69.90;;;;;;5115040;28;19908;-77
2022/08/17 04:21:35;;;;;;;;;;;25.10;70.00;;;;;;5115090;28;19977;-77
2022/08/17 04:24:01;;;;;;;;;;;25.10;69.90;;;;;;5113826;28;19916;-77
2022/08/17 04:26:27;;;;;;;;;;;25.10;69.90;;;;;;5114869;28;19908;-77
2022/08/17 04:28:53;;;;;;;;;;;25.10;69.80;;;;;;5114983;28;20413;-77
2022/08/17 04:31:19;;;;;;;;;;;25.20;69.80;;;;;;5114360;28;20218;-77
2022/08/17 04:33:44;;;;;;;;;;;25.20;69.70;;;;;;5113476;28;19912;-77
2022/08/17 04:36:12;;;;;;;;;;;25.20;69.70;;;;;;5114811;28;19916;-77
2022/08/17 04:38:39;;;;;;;;;;;25.20;69.60;;;;;;5114725;28;19911;-76
2022/08/17 04:43:53;;;;;;;;;;;25.30;69.60;;;;;;5115762;28;19950;-76
2022/08/17 04:46:20;;;;;;;;;;;25.30;69.60;;;;;;5113571;28;19955;-76
2022/08/17 04:48:47;;;;;;;;;;;25.40;69.60;;;;;;5114556;28;20052;-78
2022/08/17 04:51:21;;;;;;;;;;;25.40;69.60;;;;;;5114623;28;19907;-78
2022/08/17 04:53:48;;;;;;;;;;;25.40;69.60;;;;;;5113370;28;19919;-78
2022/08/17 04:56:15;;;;;;;;;;;25.50;69.60;;;;;;5114705;28;19912;-76
2022/08/17 04:58:41;;;;;;;;;;;25.50;69.60;;;;;;5115060;28;19907;-77
2022/08/17 05:01:06;;;;;;;;;;;25.50;69.50;;;;;;5113253;28;19915;-77
2022/08/17 05:03:33;;;;;;;;;;;25.60;69.60;;;;;;5113953;28;19908;-77
2022/08/17 05:05:58;;;;;;;;;;;25.60;69.50;;;;;;5114132;28;20378;-77
2022/08/17 05:08:24;;;;;;;;;;;25.60;69.50;;;;;;5112915;28;19908;-76
2022/08/17 05:10:49;;;;;;;;;;;25.60;69.50;;;;;;5113717;28;19915;-77
2022/08/17 05:13:16;;;;;;;;;;;25.60;69.40;;;;;;5114423;28;20234;-77
2022/08/17 05:15:43;;;;;;;;;;;25.70;69.40;;;;;;5114600;28;19974;-76
2022/08/17 05:18:09;;;;;;;;;;;25.70;69.40;;;;;;5117285;28;19908;-77
2022/08/17 05:20:35;;;;;;;;;;;25.70;69.30;;;;;;5118646;28;20311;-77
2022/08/17 05:23:03;;;;;;;;;;;25.80;69.30;;;;;;5117153;28;19908;-77
2022/08/17 05:25:30;;;;;;;;;;;25.80;69.20;;;;;;5118372;28;19908;-77
2022/08/17 05:27:55;;;;;;;;;;;25.80;69.20;;;;;;5118279;28;20362;-78
2022/08/17 05:30:21;;;;;;;;;;;25.90;69.30;;;;;;5118401;28;19974;-78
2022/08/17 05:32:54;;;;;;;;;;;25.90;69.20;;;;;;5118166;28;19919;-78
2022/08/17 05:35:20;;;;;;;;;;;26.00;69.20;;;;;;5118368;28;20017;-77
2022/08/17 05:37:46;;;;;;;;;;;26.00;69.10;;;;;;5118026;28;19919;-77
2022/08/17 05:40:12;;;;;;;;;;;26.00;69.10;;;;;;5118286;28;19908;-77
2022/08/17 05:42:38;;;;;;;;;;;26.00;69.10;;;;;;5118195;28;19912;-77
2022/08/17 05:45:03;;;;;;;;;;;26.00;69.00;;;;;;5117060;28;19912;-77
2022/08/17 05:47:29;;;;;;;;;;;26.10;69.10;;;;;;5118307;28;20333;-77
2022/08/17 05:49:55;;;;;;;;;;;26.10;69.10;;;;;;5117786;28;19915;-77
2022/08/17 05:52:27;;;;;;;;;;;26.10;69.10;;;;;;5117762;28;19912;-77
2022/08/17 05:55:02;;;;;;;;;;;26.10;69.00;;;;;;5117995;28;19919;-78
2022/08/17 05:57:50;;;;;;;;;;;26.10;68.90;;;;;;5118119;28;19908;-77
2022/08/17 06:00:16;;;;;;;;;;;26.10;68.90;;;;;;5114396;28;19908;-77
2022/08/17 06:02:59;;;;;;;;;;;26.20;68.90;;;;;;5117695;28;20246;-77
2022/08/17 06:05:50;;;;;;;;;;;26.20;68.90;;;;;;5117811;28;19907;-77
2022/08/17 06:08:31;;;;;;;;;;;26.20;69.00;;;;;;5118359;28;20011;-77
2022/08/17 06:10:56;;;;;;;;;;;26.20;69.10;;;;;;5118005;28;20394;-78
2022/08/17 06:13:48;;;;;;;;;;;26.10;69.00;;;;;;5116280;28;19951;-77
2022/08/17 06:16:19;;;;;;;;;;;26.10;69.00;;;;;;5108493;27;20393;-77
2022/08/17 06:19:00;;;;;;;;;;;26.20;69.10;;;;;;5117403;28;20065;-77
2022/08/17 06:21:26;;;;;;;;;;;26.20;69.20;;;;;;5117165;28;19919;-78
2022/08/17 06:23:58;;;;;;;;;;;26.20;69.20;;;;;;5117367;28;20350;-76
2022/08/17 06:26:26;;;;;;;;;;;26.20;69.30;;;;;;5116489;28;19908;-77
2022/08/17 06:28:53;;;;;;;;;;;26.20;69.20;;;;;;5116608;28;19943;-78
2022/08/17 06:31:28;;;;;;;;;;;26.20;69.50;;;;;;5118324;28;19952;-78
2022/08/17 06:33:58;;;;;;;;;;;26.20;69.70;;;;;;5116844;28;20014;-78
2022/08/17 06:36:30;;;;;;;;;;;26.20;69.50;;;;;;5117115;28;19912;-77
2022/08/17 06:39:07;;;;;;;;;;;26.20;69.90;;;;;;5117222;28;20215;-77
2022/08/17 06:41:43;;;;;;;;;;;26.20;69.60;;;;;;5116879;28;19911;-77
2022/08/17 06:44:18;;;;;;;;;;;26.10;69.60;;;;;;5117164;28;19951;-78
2022/08/17 06:46:48;;;;;;;;;;;26.20;70.10;;;;;;5117274;28;19915;-77
2022/08/17 06:49:17;;;;;;;;;;;26.10;69.50;;;;;;5116017;28;20270;-76
2022/08/17 06:51:47;;;;;;;;;;;26.20;69.50;;;;;;5116832;28;20365;-78
2022/08/17 06:54:21;;;;;;;;;;;26.30;69.50;;;;;;5116848;27;19916;-77
2022/08/17 06:56:51;;;;;;;;;;;26.30;69.40;;;;;;5116802;28;19912;-77
2022/08/17 06:59:18;;;;;;;;;;;26.30;69.40;;;;;;5116893;28;19908;-78
2022/08/17 07:01:45;;;;;;;;;;;26.30;69.40;;;;;;5116588;28;19908;-77
2022/08/17 07:04:13;;;;;;;;;;;26.30;69.40;;;;;;5116633;28;19907;-77
2022/08/17 07:06:41;;;;;;;;;;;26.30;69.30;;;;;;5115268;28;19994;-77
2022/08/17 07:09:16;;;;;;;;;;;26.40;69.30;;;;;;5114863;28;20369;-78
2022/08/17 07:11:49;;;;;;;;;;;26.40;69.30;;;;;;5116592;28;20362;-78
2022/08/17 07:14:36;;;;;;;;;;;26.40;69.60;;;;;;5116443;28;19912;-78
2022/08/17 07:17:09;;;;;;;;;;;26.40;69.40;;;;;;5116135;28;20006;-78
2022/08/17 07:19:37;;;;;;;;;;;26.50;69.60;;;;;;5115849;28;20389;-78
2022/08/17 07:22:20;;;;;;;;;;;26.50;70.10;;;;;;5116762;28;20278;-77
2022/08/17 07:25:04;;;;;;;;;;;26.50;69.90;;;;;;5116166;28;20274;-77
2022/08/17 07:27:40;;;;;;;;;;;26.50;70.20;;;;;;5116129;28;20324;-77
2022/08/17 07:30:08;;;;;;;;;;;26.50;70.30;;;;;;5115936;28;19919;-78
2022/08/17 07:32:39;;;;;;;;;;;26.50;70.50;;;;;;5116189;28;20007;-78
2022/08/17 07:35:09;;;;;;;;;;;26.50;70.20;;;;;;5115820;28;20327;-78
2022/08/17 07:37:43;;;;;;;;;;;26.50;70.10;;;;;;5115626;28;20383;-76
2022/08/17 07:40:16;;;;;;;;;;;26.50;70.00;;;;;;5115888;28;19959;-77
2022/08/17 07:42:59;;;;;;;;;;;26.50;70.00;;;;;;5115682;28;20268;-77
2022/08/17 07:48:18;;;;;;;;;;;26.50;69.80;;;;;;5115902;28;19919;-77
2022/08/17 07:50:43;;;;;;;;;;;26.60;69.70;;;;;;5115764;28;19908;-77
2022/08/17 07:53:21;;;;;;;;;;;26.60;69.80;;;;;;5114254;28;19964;-76
2022/08/17 07:55:48;;;;;;;;;;;26.60;69.70;;;;;;5115520;28;19915;-78
2022/08/17 07:58:17;;;;;;;;;;;26.60;69.70;;;;;;5115182;28;19915;-77
2022/08/17 08:00:44;;;;;;;;;;;26.70;69.80;;;;;;5115510;28;19915;-77
2022/08/17 08:03:25;;;;;;;;;;;26.70;70.40;;;;;;5115196;28;19907;-78
2022/08/17 08:05:56;;;;;;;;;;;26.70;69.60;;;;;;5115526;28;19926;-77
2022/08/17 08:08:41;;;;;;;;;;;26.70;69.50;;;;;;5115881;28;19908;-78
2022/08/17 08:11:08;;;;;;;;;;;26.80;69.70;;;;;;5115338;28;19908;-78
2022/08/17 08:13:41;;;;;;;;;;;26.80;69.80;;;;;;5115051;28;20072;-78
2022/08/17 08:16:28;;;;;;;;;;;26.80;69.80;;;;;;5116296;28;19972;-77
2022/08/17 08:18:58;;;;;;;;;;;26.90;69.90;;;;;;5115208;28;20285;-76
2022/08/17 08:21:27;;;;;;;;;;;26.80;69.80;;;;;;5096961;28;20471;-77
2022/08/17 08:23:53;;;;;;;;;;;26.90;69.80;;;;;;5114778;28;19908;-77
2022/08/17 08:26:31;;;;;;;;;;;26.90;69.70;;;;;;5114588;28;19915;-76
2022/08/17 08:29:07;;;;;;;;;;;26.90;69.70;;;;;;5114872;28;19907;-77
2022/08/17 08:31:41;;;;;;;;;;;26.90;69.50;;;;;;5113386;28;20346;-77
2022/08/17 08:34:13;;;;;;;;;;;26.90;69.50;;;;;;5114719;28;20280;-77
2022/08/17 08:36:49;;;;;;;;;;;27.00;69.60;;;;;;5114588;28;19912;-77
2022/08/17 08:39:19;;;;;;;;;;;26.90;69.40;;;;;;5113615;28;20350;-76
2022/08/17 08:41:53;;;;;;;;;;;27.00;69.40;;;;;;5114674;28;19907;-77
2022/08/17 08:44:34;;;;;;;;;;;27.00;69.30;;;;;;5114640;28;19908;-77
2022/08/17 08:47:13;;;;;;;;;;;27.10;69.30;;;;;;5114623;28;20048;-77
2022/08/17 08:49:44;;;;;;;;;;;27.10;69.20;;;;;;5096300;28;19912;-76
2022/08/17 08:52:33;;;;;;;;;;;27.10;69.10;;;;;;5114278;28;20006;-77
2022/08/17 08:55:04;;;;;;;;;;;27.10;69.00;;;;;;5111072;28;19945;-77
2022/08/17 08:57:31;;;;;;;;;;;27.10;68.90;;;;;;5114562;28;19908;-77
2022/08/17 09:00:03;;;;;;;;;;;27.20;68.80;;;;;;5113360;28;19995;-78
2022/08/17 09:02:47;;;;;;;;;;;27.20;68.60;;;;;;5114443;28;19908;-78
2022/08/17 09:05:20;;;;;;;;;;;27.20;68.60;;;;;;5114268;28;20002;-78
2022/08/17 09:08:04;;;;;;;;;;;27.20;68.50;;;;;;5114277;28;19926;-76
2022/08/17 09:10:33;;;;;;;;;;;27.20;68.40;;;;;;5114216;28;19915;-78
2022/08/17 09:13:05;;;;;;;;;;;27.20;68.20;;;;;;5114134;28;19912;-78
2022/08/17 09:15:51;;;;;;;;;;;27.20;67.90;;;;;;5114435;28;19919;-78
2022/08/17 09:18:32;;;;;;;;;;;27.20;67.90;;;;;;5112353;28;20053;-77
2022/08/17 09:21:00;;;;;;;;;;;27.20;67.90;;;;;;5114388;28;19908;-77
2022/08/17 09:23:35;;;;;;;;;;;27.30;68.00;;;;;;5114402;28;19915;-76
2022/08/17 09:26:00;;;;;;;;;;;27.30;67.90;;;;;;5114557;28;19908;-76
2022/08/17 09:28:28;;;;;;;;;;;27.20;67.90;;;;;;5114356;28;20002;-77
2022/08/17 09:31:01;;;;;;;;;;;27.30;67.80;;;;;;5114167;28;19974;-77
2022/08/17 09:33:27;;;;;;;;;;;27.30;67.80;;;;;;5114083;28;19946;-77
2022/08/17 09:36:08;;;;;;;;;;;27.30;67.80;;;;;;5114277;28;20018;-76
2022/08/17 09:38:34;;;;;;;;;;;27.30;67.70;;;;;;5114351;28;19965;-77
2022/08/17 09:41:05;;;;;;;;;;;27.40;67.60;;;;;;5114004;28;19908;-77
2022/08/17 09:43:45;;;;;;;;;;;27.40;67.30;;;;;;5113700;28;19918;-76
2022/08/17 09:46:19;;;;;;;;;;;27.40;67.00;;;;;;5113470;28;20007;-79
2022/08/17 09:49:00;;;;;;;;;;;27.40;66.70;;;;;;5113838;28;19908;-78
2022/08/17 09:51:38;;;;;;;;;;;26.80;66.60;;;;;;5113804;28;19958;-78
2022/08/17 09:54:11;;;;;;;;;;;27.40;66.70;;;;;;5112620;28;19912;-77
2022/08/17 09:56:41;;;;;;;;;;;27.50;67.00;;;;;;5114145;28;19955;-78
2022/08/17 09:59:06;;;;;;;;;;;27.50;67.00;;;;;;5114122;28;19915;-78
2022/08/17 10:01:42;;;;;;;;;;;27.50;66.80;;;;;;5115346;28;20350;-76
2022/08/17 10:04:31;;;;;;;;;;;27.50;66.60;;;;;;5117372;28;19947;-77
2022/08/17 10:07:13;;;;;;;;;;;27.50;66.80;;;;;;5106760;28;20348;-77
2022/08/17 10:09:44;;;;;;;;;;;27.50;66.70;;;;;;5117696;28;20384;-77
2022/08/17 10:12:30;;;;;;;;;;;27.60;66.30;;;;;;5116431;28;20418;-77
2022/08/17 10:14:55;;;;;;;;;;;27.60;66.50;;;;;;5108849;28;20010;-77
2022/08/17 10:17:36;;;;;;;;;;;27.60;66.50;;;;;;5117636;28;19958;-77
2022/08/17 10:20:11;;;;;;;;;;;27.60;66.40;;;;;;5117372;28;19911;-77
2022/08/17 10:28:11;;;;;;;;;;;27.70;66.30;;;;;;5117434;28;19977;-77
2022/08/17 10:30:42;;;;;;;;;;;27.60;66.10;;;;;;5117502;28;19915;-77
2022/08/17 10:33:14;;;;;;;;;;;27.70;66.10;;;;;;5117114;28;20022;-78
2022/08/17 10:36:00;;;;;;;;;;;27.70;66.00;;;;;;5117560;28;19937;-78
2022/08/17 10:38:44;;;;;;;;;;;27.70;66.00;;;;;;5117185;28;19916;-78
2022/08/17 10:41:25;;;;;;;;;;;27.70;65.90;;;;;;5116946;28;19907;-76
2022/08/17 10:44:09;;;;;;;;;;;27.70;66.00;;;;;;5116518;28;20349;-77
2022/08/17 10:46:53;;;;;;;;;;;27.80;65.90;;;;;;5117106;28;19907;-77
2022/08/17 10:49:21;;;;;;;;;;;27.70;65.80;;;;;;5116773;28;19912;-77
2022/08/17 10:51:50;;;;;;;;;;;27.70;65.90;;;;;;5116910;28;20242;-77
2022/08/17 10:54:34;;;;;;;;;;;27.70;65.60;;;;;;5116565;28;20346;-78
2022/08/17 10:57:00;;;;;;;;;;;27.70;65.80;;;;;;5116940;28;19912;-77
2022/08/17 10:59:35;;;;;;;;;;;27.70;65.80;;;;;;5117015;28;19931;-77
2022/08/17 11:02:03;;;;;;;;;;;27.70;65.80;;;;;;5116468;28;19915;-76
2022/08/17 11:04:35;;;;;;;;;;;27.80;65.70;;;;;;5116492;28;19908;-77
2022/08/17 11:07:24;;;;;;;;;;;27.80;65.70;;;;;;5116303;28;19927;-78
2022/08/17 11:10:28;;;;;;;;;;;27.90;65.60;;;;;;5113480;28;19912;-76
2022/08/17 11:13:10;;;;;;;;;;;27.90;65.60;;;;;;5075727;28;20008;-77
2022/08/17 11:15:42;;;;;;;;;;;28.00;65.20;;;;;;5077026;28;19919;-77
2022/08/17 11:18:23;;;;;;;;;;;28.10;65.40;;;;;;5107601;28;20006;-77
2022/08/17 11:21:10;;;;;;;;;;;28.10;65.30;;;;;;5116240;28;19912;-77
2022/08/17 11:23:42;;;;;;;;;;;28.10;65.10;;;;;;5116239;28;19908;-77
2022/08/17 11:26:24;;;;;;;;;;;28.20;65.20;;;;;;5114796;28;19908;-76
2022/08/17 11:28:55;;;;;;;;;;;28.20;64.80;;;;;;5116016;28;19907;-77
2022/08/17 11:31:23;;;;;;;;;;;28.20;64.90;;;;;;5116089;28;19915;-77
2022/08/17 11:34:15;;;;;;;;;;;28.20;64.80;;;;;;5115849;28;19911;-77
2022/08/17 11:36:44;;;;;;;;;;;28.20;64.80;;;;;;5114590;28;19964;-78
2022/08/17 11:39:15;;;;;;;;;;;28.20;64.70;;;;;;5115845;28;19915;-77
2022/08/17 11:41:51;;;;;;;;;;;28.20;64.70;;;;;;5115770;28;20380;-77
2022/08/17 11:44:16;;;;;;;;;;;28.20;64.60;;;;;;5115570;28;20001;-78
2022/08/17 11:52:48;;;;;;;;;;;28.30;64.40;;;;;;5115446;28;20276;-78
2022/08/17 11:55:26;;;;;;;;;;;28.30;64.40;;;;;;5114354;28;19912;-77
2022/08/17 11:58:00;;;;;;;;;;;28.30;64.40;;;;;;5115554;28;19908;-78
2022/08/17 12:00:44;;;;;;;;;;;28.30;64.30;;;;;;5115725;28;19953;-78
2022/08/17 12:03:21;;;;;;;;;;;28.30;64.20;;;;;;5115150;28;20307;-78
2022/08/17 12:05:47;;;;;;;;;;;28.40;64.20;;;;;;5114977;28;20286;-77
2022/08/17 12:08:17;;;;;;;;;;;28.40;64.10;;;;;;5114832;28;19933;-77
2022/08/17 12:11:08;;;;;;;;;;;28.40;64.10;;;;;;5116035;28;19915;-77
2022/08/17 12:13:37;;;;;;;;;;;28.40;63.80;;;;;;5112128;28;20392;-77
2022/08/17 12:16:03;;;;;;;;;;;28.50;63.90;;;;;;5115619;28;20330;-77
2022/08/17 12:18:34;;;;;;;;;;;28.50;63.80;;;;;;5115568;28;19908;-77
2022/08/17 12:21:04;;;;;;;;;;;28.50;63.80;;;;;;5114887;28;19914;-78
2022/08/17 12:23:36;;;;;;;;;;;28.60;63.80;;;;;;5115161;28;19908;-78
2022/08/17 12:26:18;;;;;;;;;;;28.60;63.70;;;;;;5114733;28;19908;-77
2022/08/17 12:28:44;;;;;;;;;;;28.70;63.70;;;;;;5115685;28;19960;-81
2022/08/17 12:31:13;;;;;;;;;;;28.70;63.60;;;;;;5115198;28;19957;-77
2022/08/17 12:33:42;;;;;;;;;;;28.70;63.40;;;;;;5114918;28;19956;-77
2022/08/17 12:36:13;;;;;;;;;;;28.80;63.40;;;;;;5114789;28;19916;-77
2022/08/17 12:38:40;;;;;;;;;;;28.80;63.40;;;;;;5115156;28;19934;-77
2022/08/17 12:44:01;;;;;;;;;;;28.90;63.10;;;;;;5115067;28;19915;-78
2022/08/17 12:46:27;;;;;;;;;;;28.80;62.90;;;;;;5114788;28;19908;-77
2022/08/17 12:48:53;;;;;;;;;;;28.80;62.90;;;;;;5114612;28;19915;-78
2022/08/17 12:51:19;;;;;;;;;;;27.30;61.90;;;;;;5114807;28;19912;-78
2022/08/17 12:53:51;;;;;;;;;;;28.80;63.00;;;;;;5114837;28;19912;-80
2022/08/17 12:56:17;;;;;;;;;;;28.80;63.00;;;;;;5114365;28;20006;-77
2022/08/17 12:58:47;;;;;;;;;;;28.80;63.10;;;;;;5113011;28;20322;-77
2022/08/17 13:01:15;;;;;;;;;;;28.90;63.10;;;;;;5114300;28;19915;-77
2022/08/17 13:03:48;;;;;;;;;;;29.00;63.10;;;;;;5114540;28;19908;-77
2022/08/17 13:06:27;;;;;;;;;;;29.10;63.10;;;;;;5114693;28;19920;-78
2022/08/17 13:08:53;;;;;;;;;;;29.20;62.80;;;;;;5114531;28;19969;-77
2022/08/17 13:11:21;;;;;;;;;;;29.30;62.60;;;;;;5113089;28;19912;-77
2022/08/17 13:13:50;;;;;;;;;;;29.40;62.40;;;;;;5112851;28;20316;-77
2022/08/17 13:16:18;;;;;;;;;;;29.50;62.20;;;;;;5114896;28;19912;-78
2022/08/17 13:18:48;;;;;;;;;;;29.50;62.40;;;;;;5112979;28;19908;-75
2022/08/17 13:21:25;;;;;;;;;;;29.70;62.20;;;;;;5114976;28;20312;-77
2022/08/17 13:24:03;;;;;;;;;;;29.80;62.90;;;;;;5114246;28;20269;-77
2022/08/17 13:26:43;;;;;;;;;;;29.90;61.70;;;;;;5114193;28;20277;-78
2022/08/17 13:29:24;;;;;;;;;;;30.10;62.10;;;;;;5114438;28;19953;-78
2022/08/17 13:31:54;;;;;;;;;;;30.30;62.10;;;;;;5114411;28;19907;-77
2022/08/17 13:34:23;;;;;;;;;;;30.80;62.00;;;;;;5114948;28;19920;-78
2022/08/17 13:36:49;;;;;;;;;;;31.10;62.30;;;;;;5116726;28;19922;-77
2022/08/17 13:39:19;;;;;;;;;;;31.50;61.60;;;;;;5118416;28;19921;-77
2022/08/17 13:41:45;;;;;;;;;;;31.80;61.90;;;;;;5117010;28;19951;-78
2022/08/17 13:44:30;;;;;;;;;;;32.10;60.30;;;;;;5118271;27;19951;-77
2022/08/17 13:46:56;;;;;;;;;;;32.10;60.00;;;;;;5118568;28;19937;-78
2022/08/17 13:49:22;;;;;;;;;;;31.90;59.20;;;;;;5118525;28;19912;-78
2022/08/17 13:51:51;;;;;;;;;;;31.80;59.30;;;;;;5116750;28;20420;-76
2022/08/17 13:54:25;;;;;;;;;;;31.60;59.10;;;;;;5117990;28;19911;-76
2022/08/17 13:56:54;;;;;;;;;;;31.40;59.00;;;;;;5118060;28;20406;-77
2022/08/17 13:59:49;;;;;;;;;;;31.20;59.00;;;;;;5117693;28;20304;-78
2022/08/17 14:02:16;;;;;;;;;;;31.00;59.20;;;;;;5112848;28;20296;-77
2022/08/17 14:04:43;;;;;;;;;;;30.80;59.20;;;;;;5117792;28;20376;-75
2022/08/17 14:07:10;;;;;;;;;;;30.70;59.60;;;;;;5120174;28;19927;-78
2022/08/17 14:09:56;;;;;;;;;;;30.50;59.70;;;;;;5117553;28;19958;-77
2022/08/17 14:12:25;;;;;;;;;;;30.40;59.90;;;;;;5116890;28;19908;-77
2022/08/17 14:14:55;;;;;;;;;;;30.20;60.00;;;;;;5116507;28;20292;-78
2022/08/17 14:17:21;;;;;;;;;;;29.10;59.40;;;;;;5116112;28;19911;-77
2022/08/17 14:19:47;;;;;;;;;;;30.00;60.10;;;;;;5117123;28;20365;-77
2022/08/17 14:22:22;;;;;;;;;;;30.00;60.40;;;;;;5117386;28;19908;-77
2022/08/17 14:24:50;;;;;;;;;;;29.70;60.40;;;;;;5117138;28;19991;-77
2022/08/17 14:27:16;;;;;;;;;;;29.60;60.40;;;;;;5116019;28;19908;-77
2022/08/17 14:29:42;;;;;;;;;;;29.50;60.60;;;;;;5116398;28;19918;-78
2022/08/17 14:32:17;;;;;;;;;;;29.40;60.80;;;;;;5118147;28;20336;-77
2022/08/17 14:34:44;;;;;;;;;;;29.30;60.80;;;;;;5117261;28;19920;-79
2022/08/17 14:37:09;;;;;;;;;;;29.30;60.90;;;;;;5116788;28;20332;-77
2022/08/17 14:39:35;;;;;;;;;;;29.10;60.90;;;;;;5117676;28;19908;-77
2022/08/17 14:42:01;;;;;;;;;;;29.10;61.00;;;;;;5116929;28;19957;-77
2022/08/17 14:44:26;;;;;;;;;;;29.10;61.20;;;;;;5116728;28;19960;-76
2022/08/17 14:46:52;;;;;;;;;;;29.00;61.30;;;;;;5116864;28;19998;-77
2022/08/17 14:49:18;;;;;;;;;;;28.90;61.30;;;;;;5115286;28;19919;-78
2022/08/17 14:51:44;;;;;;;;;;;28.80;61.40;;;;;;5116409;28;19931;-77
2022/08/17 14:54:09;;;;;;;;;;;28.80;61.50;;;;;;5116184;28;19912;-77
2022/08/17 14:56:35;;;;;;;;;;;28.70;61.50;;;;;;5116806;28;19911;-77
2022/08/17 14:59:01;;;;;;;;;;;28.70;61.60;;;;;;5116596;28;19908;-77
2022/08/17 15:01:27;;;;;;;;;;;28.60;61.70;;;;;;5116297;28;19915;-77
2022/08/17 15:03:53;;;;;;;;;;;28.60;61.70;;;;;;5116530;28;19961;-77
2022/08/17 15:06:19;;;;;;;;;;;28.50;61.80;;;;;;5116183;28;19920;-77
2022/08/17 15:08:45;;;;;;;;;;;27.80;61.40;;;;;;5115330;28;19911;-77
2022/08/17 15:11:11;;;;;;;;;;;28.50;62.00;;;;;;5116269;28;19969;-77
2022/08/17 15:13:37;;;;;;;;;;;28.40;62.00;;;;;;5116328;28;19912;-77
2022/08/17 15:16:03;;;;;;;;;;;28.40;62.10;;;;;;5116182;28;19919;-77